sensor_id;sensor_type;location;lat;lon;timestamp;P1;durP1;ratioP1;P2;durP2;ratioP2
35366;SDS011;21465;52.278;20.962;2023-06-26T00:01:17;4.68;;;4.18;;
35366;SDS011;21465;52.278;20.962;2023-06-26T00:03:47;4.22;;;3.83;;
35366;SDS011;21465;52.278;20.962;2023-06-26T00:06:13;4.18;;;3.85;;
35366;SDS011;21465;52.278;20.962;2023-06-26T00:08:39;4.13;;;3.83;;
35366;SDS011;21465;52.278;20.962;2023-06-26T00:11:04;4.78;;;4.38;;
35366;SDS011;21465;52.278;20.962;2023-06-26T00:13:30;4.68;;;4.28;;
35366;SDS011;21465;52.278;20.962;2023-06-26T00:15:57;4.22;;;3.92;;
35366;SDS011;21465;52.278;20.962;2023-06-26T00:18:23;4.38;;;4.05;;
35366;SDS011;21465;52.278;20.962;2023-06-26T00:20:49;3.97;;;3.63;;
35366;SDS011;21465;52.278;20.962;2023-06-26T00:23:18;4.53;;;4.10;;
35366;SDS011;21465;52.278;20.962;2023-06-26T00:25:44;4.75;;;4.35;;
35366;SDS011;21465;52.278;20.962;2023-06-26T00:28:10;5.20;;;4.80;;
35366;SDS011;21465;52.278;20.962;2023-06-26T00:30:36;5.07;;;4.68;;
35366;SDS011;21465;52.278;20.962;2023-06-26T00:33:02;6.30;;;4.57;;
35366;SDS011;21465;52.278;20.962;2023-06-26T00:35:28;4.20;;;3.80;;
35366;SDS011;21465;52.278;20.962;2023-06-26T00:37:53;4.95;;;4.50;;
35366;SDS011;21465;52.278;20.962;2023-06-26T00:40:19;4.57;;;4.20;;
35366;SDS011;21465;52.278;20.962;2023-06-26T00:42:45;4.55;;;4.22;;
35366;SDS011;21465;52.278;20.962;2023-06-26T00:45:11;4.32;;;4.03;;
35366;SDS011;21465;52.278;20.962;2023-06-26T00:47:36;4.07;;;3.78;;
35366;SDS011;21465;52.278;20.962;2023-06-26T00:50:03;5.30;;;4.90;;
35366;SDS011;21465;52.278;20.962;2023-06-26T00:52:29;4.95;;;4.55;;
35366;SDS011;21465;52.278;20.962;2023-06-26T00:54:55;4.63;;;4.28;;
35366;SDS011;21465;52.278;20.962;2023-06-26T00:57:21;5.28;;;4.35;;
35366;SDS011;21465;52.278;20.962;2023-06-26T00:59:47;4.53;;;4.05;;
35366;SDS011;21465;52.278;20.962;2023-06-26T01:02:13;4.38;;;4.07;;
35366;SDS011;21465;52.278;20.962;2023-06-26T01:04:43;4.40;;;4.00;;
35366;SDS011;21465;52.278;20.962;2023-06-26T01:07:12;4.60;;;4.20;;
35366;SDS011;21465;52.278;20.962;2023-06-26T01:09:39;4.82;;;4.20;;
35366;SDS011;21465;52.278;20.962;2023-06-26T01:12:05;3.72;;;3.42;;
35366;SDS011;21465;52.278;20.962;2023-06-26T01:14:31;4.30;;;4.00;;
35366;SDS011;21465;52.278;20.962;2023-06-26T01:16:58;3.88;;;3.58;;
35366;SDS011;21465;52.278;20.962;2023-06-26T01:19:26;3.53;;;3.25;;
35366;SDS011;21465;52.278;20.962;2023-06-26T01:25:02;3.40;;;3.10;;
35366;SDS011;21465;52.278;20.962;2023-06-26T01:27:35;4.43;;;3.30;;
35366;SDS011;21465;52.278;20.962;2023-06-26T01:30:02;3.67;;;3.40;;
35366;SDS011;21465;52.278;20.962;2023-06-26T01:32:30;3.70;;;3.40;;
35366;SDS011;21465;52.278;20.962;2023-06-26T01:34:56;4.00;;;3.70;;
35366;SDS011;21465;52.278;20.962;2023-06-26T01:37:22;3.53;;;3.22;;
35366;SDS011;21465;52.278;20.962;2023-06-26T01:39:48;5.55;;;3.92;;
35366;SDS011;21465;52.278;20.962;2023-06-26T01:42:14;3.85;;;3.55;;
35366;SDS011;21465;52.278;20.962;2023-06-26T01:44:42;3.83;;;3.58;;
35366;SDS011;21465;52.278;20.962;2023-06-26T01:47:12;4.00;;;3.70;;
35366;SDS011;21465;52.278;20.962;2023-06-26T01:49:54;3.55;;;3.35;;
35366;SDS011;21465;52.278;20.962;2023-06-26T01:57:17;3.95;;;3.60;;
35366;SDS011;21465;52.278;20.962;2023-06-26T01:59:44;3.70;;;3.45;;
35366;SDS011;21465;52.278;20.962;2023-06-26T02:02:11;3.42;;;3.10;;
35366;SDS011;21465;52.278;20.962;2023-06-26T02:04:36;3.60;;;3.30;;
35366;SDS011;21465;52.278;20.962;2023-06-26T02:07:02;3.90;;;3.60;;
35366;SDS011;21465;52.278;20.962;2023-06-26T02:09:29;4.10;;;3.80;;
35366;SDS011;21465;52.278;20.962;2023-06-26T02:11:54;4.00;;;3.70;;
35366;SDS011;21465;52.278;20.962;2023-06-26T02:14:20;3.83;;;3.53;;
35366;SDS011;21465;52.278;20.962;2023-06-26T02:16:46;4.05;;;3.75;;
35366;SDS011;21465;52.278;20.962;2023-06-26T02:19:11;3.90;;;3.60;;
35366;SDS011;21465;52.278;20.962;2023-06-26T02:21:37;4.45;;;4.15;;
35366;SDS011;21465;52.278;20.962;2023-06-26T02:24:05;3.72;;;3.42;;
35366;SDS011;21465;52.278;20.962;2023-06-26T02:26:30;3.80;;;3.47;;
35366;SDS011;21465;52.278;20.962;2023-06-26T02:28:56;3.88;;;3.58;;
35366;SDS011;21465;52.278;20.962;2023-06-26T02:31:22;4.32;;;3.92;;
35366;SDS011;21465;52.278;20.962;2023-06-26T02:33:48;4.10;;;3.80;;
35366;SDS011;21465;52.278;20.962;2023-06-26T02:36:13;4.30;;;3.92;;
35366;SDS011;21465;52.278;20.962;2023-06-26T02:38:39;3.63;;;3.42;;
35366;SDS011;21465;52.278;20.962;2023-06-26T02:41:05;4.10;;;3.80;;
35366;SDS011;21465;52.278;20.962;2023-06-26T02:43:30;4.47;;;4.07;;
35366;SDS011;21465;52.278;20.962;2023-06-26T02:45:56;4.88;;;3.97;;
35366;SDS011;21465;52.278;20.962;2023-06-26T02:48:22;3.83;;;3.63;;
35366;SDS011;21465;52.278;20.962;2023-06-26T02:50:48;4.60;;;4.22;;
35366;SDS011;21465;52.278;20.962;2023-06-26T02:53:13;4.07;;;3.78;;
35366;SDS011;21465;52.278;20.962;2023-06-26T02:55:39;4.55;;;3.90;;
35366;SDS011;21465;52.278;20.962;2023-06-26T02:58:05;3.72;;;3.45;;
35366;SDS011;21465;52.278;20.962;2023-06-26T03:00:31;4.95;;;4.35;;
35366;SDS011;21465;52.278;20.962;2023-06-26T03:02:57;4.57;;;4.28;;
35366;SDS011;21465;52.278;20.962;2023-06-26T03:05:23;4.05;;;3.70;;
35366;SDS011;21465;52.278;20.962;2023-06-26T03:07:49;6.03;;;4.40;;
35366;SDS011;21465;52.278;20.962;2023-06-26T03:10:15;4.72;;;4.38;;
35366;SDS011;21465;52.278;20.962;2023-06-26T03:12:41;4.25;;;3.92;;
35366;SDS011;21465;52.278;20.962;2023-06-26T03:15:06;4.30;;;4.00;;
35366;SDS011;21465;52.278;20.962;2023-06-26T03:17:32;4.47;;;4.18;;
35366;SDS011;21465;52.278;20.962;2023-06-26T03:19:58;4.85;;;4.47;;
35366;SDS011;21465;52.278;20.962;2023-06-26T03:22:24;4.38;;;4.07;;
35366;SDS011;21465;52.278;20.962;2023-06-26T03:24:49;3.78;;;3.47;;
35366;SDS011;21465;52.278;20.962;2023-06-26T03:27:15;3.80;;;3.50;;
35366;SDS011;21465;52.278;20.962;2023-06-26T03:29:41;3.90;;;3.60;;
35366;SDS011;21465;52.278;20.962;2023-06-26T03:32:07;3.45;;;3.25;;
35366;SDS011;21465;52.278;20.962;2023-06-26T03:34:33;4.75;;;3.72;;
35366;SDS011;21465;52.278;20.962;2023-06-26T03:36:59;4.28;;;3.95;;
35366;SDS011;21465;52.278;20.962;2023-06-26T03:39:24;4.28;;;3.95;;
35366;SDS011;21465;52.278;20.962;2023-06-26T03:41:50;4.15;;;3.78;;
35366;SDS011;21465;52.278;20.962;2023-06-26T03:44:16;3.95;;;3.67;;
35366;SDS011;21465;52.278;20.962;2023-06-26T03:46:42;3.55;;;3.25;;
35366;SDS011;21465;52.278;20.962;2023-06-26T03:49:07;4.35;;;3.97;;
35366;SDS011;21465;52.278;20.962;2023-06-26T03:51:33;4.38;;;4.07;;
35366;SDS011;21465;52.278;20.962;2023-06-26T03:53:59;4.18;;;3.78;;
35366;SDS011;21465;52.278;20.962;2023-06-26T03:56:25;5.38;;;4.88;;
35366;SDS011;21465;52.278;20.962;2023-06-26T03:58:50;4.50;;;4.10;;
35366;SDS011;21465;52.278;20.962;2023-06-26T04:01:16;4.30;;;4.00;;
35366;SDS011;21465;52.278;20.962;2023-06-26T04:03:41;4.20;;;3.90;;
35366;SDS011;21465;52.278;20.962;2023-06-26T04:06:07;5.03;;;4.20;;
35366;SDS011;21465;52.278;20.962;2023-06-26T04:08:33;5.38;;;3.70;;
35366;SDS011;21465;52.278;20.962;2023-06-26T04:10:59;4.05;;;3.75;;
35366;SDS011;21465;52.278;20.962;2023-06-26T04:13:25;4.68;;;3.97;;
35366;SDS011;21465;52.278;20.962;2023-06-26T04:15:50;4.05;;;3.67;;
35366;SDS011;21465;52.278;20.962;2023-06-26T04:18:16;4.28;;;3.88;;
35366;SDS011;21465;52.278;20.962;2023-06-26T04:23:38;3.97;;;3.28;;
35366;SDS011;21465;52.278;20.962;2023-06-26T04:26:05;3.90;;;3.60;;
35366;SDS011;21465;52.278;20.962;2023-06-26T04:28:32;4.68;;;3.58;;
35366;SDS011;21465;52.278;20.962;2023-06-26T04:30:59;4.82;;;3.75;;
35366;SDS011;21465;52.278;20.962;2023-06-26T04:33:25;3.70;;;3.40;;
35366;SDS011;21465;52.278;20.962;2023-06-26T04:35:52;4.00;;;3.70;;
35366;SDS011;21465;52.278;20.962;2023-06-26T04:38:18;3.80;;;3.50;;
35366;SDS011;21465;52.278;20.962;2023-06-26T04:40:45;4.22;;;3.92;;
35366;SDS011;21465;52.278;20.962;2023-06-26T04:43:11;3.67;;;3.38;;
35366;SDS011;21465;52.278;20.962;2023-06-26T04:45:36;4.10;;;3.80;;
35366;SDS011;21465;52.278;20.962;2023-06-26T04:48:02;3.83;;;3.53;;
35366;SDS011;21465;52.278;20.962;2023-06-26T04:50:29;4.72;;;4.30;;
35366;SDS011;21465;52.278;20.962;2023-06-26T04:52:55;3.75;;;3.45;;
35366;SDS011;21465;52.278;20.962;2023-06-26T04:55:23;4.97;;;3.50;;
35366;SDS011;21465;52.278;20.962;2023-06-26T04:57:49;4.55;;;3.83;;
35366;SDS011;21465;52.278;20.962;2023-06-26T05:00:15;4.45;;;4.05;;
35366;SDS011;21465;52.278;20.962;2023-06-26T05:02:42;3.30;;;3.10;;
35366;SDS011;21465;52.278;20.962;2023-06-26T05:05:08;3.60;;;3.40;;
35366;SDS011;21465;52.278;20.962;2023-06-26T05:07:34;3.53;;;3.15;;
35366;SDS011;21465;52.278;20.962;2023-06-26T05:09:59;3.65;;;3.35;;
35366;SDS011;21465;52.278;20.962;2023-06-26T05:12:25;4.30;;;4.00;;
35366;SDS011;21465;52.278;20.962;2023-06-26T05:14:51;3.83;;;3.53;;
35366;SDS011;21465;52.278;20.962;2023-06-26T05:17:17;4.10;;;3.70;;
35366;SDS011;21465;52.278;20.962;2023-06-26T05:19:42;3.70;;;3.40;;
35366;SDS011;21465;52.278;20.962;2023-06-26T05:22:08;3.40;;;3.20;;
35366;SDS011;21465;52.278;20.962;2023-06-26T05:24:35;6.55;;;3.40;;
35366;SDS011;21465;52.278;20.962;2023-06-26T05:27:01;3.90;;;3.60;;
35366;SDS011;21465;52.278;20.962;2023-06-26T05:29:28;3.60;;;3.30;;
35366;SDS011;21465;52.278;20.962;2023-06-26T05:31:56;4.40;;;4.10;;
35366;SDS011;21465;52.278;20.962;2023-06-26T05:34:22;4.35;;;3.50;;
35366;SDS011;21465;52.278;20.962;2023-06-26T05:36:52;4.75;;;3.78;;
35366;SDS011;21465;52.278;20.962;2023-06-26T05:39:21;6.13;;;3.83;;
35366;SDS011;21465;52.278;20.962;2023-06-26T05:41:47;4.03;;;3.58;;
35366;SDS011;21465;52.278;20.962;2023-06-26T05:44:13;3.60;;;3.25;;
35366;SDS011;21465;52.278;20.962;2023-06-26T05:46:39;3.90;;;3.60;;
35366;SDS011;21465;52.278;20.962;2023-06-26T05:49:05;3.70;;;3.40;;
35366;SDS011;21465;52.278;20.962;2023-06-26T05:51:30;3.60;;;3.30;;
35366;SDS011;21465;52.278;20.962;2023-06-26T05:53:57;3.20;;;3.00;;
35366;SDS011;21465;52.278;20.962;2023-06-26T05:56:22;3.10;;;2.90;;
35366;SDS011;21465;52.278;20.962;2023-06-26T05:58:49;3.45;;;3.25;;
35366;SDS011;21465;52.278;20.962;2023-06-26T06:01:15;3.17;;;2.97;;
35366;SDS011;21465;52.278;20.962;2023-06-26T06:03:40;3.20;;;3.00;;
35366;SDS011;21465;52.278;20.962;2023-06-26T06:06:06;2.90;;;2.70;;
35366;SDS011;21465;52.278;20.962;2023-06-26T06:08:33;2.83;;;2.63;;
35366;SDS011;21465;52.278;20.962;2023-06-26T06:10:59;4.30;;;2.80;;
35366;SDS011;21465;52.278;20.962;2023-06-26T06:13:26;2.75;;;2.53;;
35366;SDS011;21465;52.278;20.962;2023-06-26T06:15:52;2.58;;;2.40;;
35366;SDS011;21465;52.278;20.962;2023-06-26T06:18:18;2.67;;;2.45;;
35366;SDS011;21465;52.278;20.962;2023-06-26T06:20:44;2.88;;;2.67;;
35366;SDS011;21465;52.278;20.962;2023-06-26T06:23:10;2.33;;;2.22;;
35366;SDS011;21465;52.278;20.962;2023-06-26T06:25:35;2.30;;;2.20;;
35366;SDS011;21465;52.278;20.962;2023-06-26T06:28:03;2.15;;;1.95;;
35366;SDS011;21465;52.278;20.962;2023-06-26T06:30:29;2.47;;;2.28;;
35366;SDS011;21465;52.278;20.962;2023-06-26T06:32:55;3.28;;;2.60;;
35366;SDS011;21465;52.278;20.962;2023-06-26T06:35:21;2.35;;;2.20;;
35366;SDS011;21465;52.278;20.962;2023-06-26T06:37:48;2.05;;;1.80;;
35366;SDS011;21465;52.278;20.962;2023-06-26T06:40:14;2.50;;;1.98;;
35366;SDS011;21465;52.278;20.962;2023-06-26T06:42:40;1.95;;;1.85;;
35366;SDS011;21465;52.278;20.962;2023-06-26T06:45:06;2.05;;;1.85;;
35366;SDS011;21465;52.278;20.962;2023-06-26T06:47:32;2.00;;;1.90;;
35366;SDS011;21465;52.278;20.962;2023-06-26T06:49:58;1.88;;;1.77;;
35366;SDS011;21465;52.278;20.962;2023-06-26T06:52:24;1.77;;;1.67;;
35366;SDS011;21465;52.278;20.962;2023-06-26T06:54:56;2.75;;;1.60;;
35366;SDS011;21465;52.278;20.962;2023-06-26T06:57:24;1.83;;;1.73;;
35366;SDS011;21465;52.278;20.962;2023-06-26T06:59:50;1.75;;;1.50;;
35366;SDS011;21465;52.278;20.962;2023-06-26T07:02:18;2.92;;;1.70;;
35366;SDS011;21465;52.278;20.962;2023-06-26T07:04:44;2.55;;;1.73;;
35366;SDS011;21465;52.278;20.962;2023-06-26T07:07:11;2.35;;;2.03;;
35366;SDS011;21465;52.278;20.962;2023-06-26T07:09:38;4.00;;;1.80;;
35366;SDS011;21465;52.278;20.962;2023-06-26T07:12:04;2.10;;;1.90;;
35366;SDS011;21465;52.278;20.962;2023-06-26T07:14:33;1.52;;;1.48;;
35366;SDS011;21465;52.278;20.962;2023-06-26T07:16:59;2.38;;;2.15;;
35366;SDS011;21465;52.278;20.962;2023-06-26T07:19:24;3.15;;;1.98;;
35366;SDS011;21465;52.278;20.962;2023-06-26T07:21:50;2.28;;;2.08;;
35366;SDS011;21465;52.278;20.962;2023-06-26T07:24:16;1.80;;;1.70;;
35366;SDS011;21465;52.278;20.962;2023-06-26T07:26:43;3.17;;;2.17;;
35366;SDS011;21465;52.278;20.962;2023-06-26T07:29:09;2.10;;;1.90;;
35366;SDS011;21465;52.278;20.962;2023-06-26T07:31:34;2.67;;;2.30;;
35366;SDS011;21465;52.278;20.962;2023-06-26T07:34:00;4.00;;;2.08;;
35366;SDS011;21465;52.278;20.962;2023-06-26T07:36:26;4.43;;;2.10;;
35366;SDS011;21465;52.278;20.962;2023-06-26T07:38:51;1.90;;;1.80;;
35366;SDS011;21465;52.278;20.962;2023-06-26T07:41:17;1.70;;;1.60;;
35366;SDS011;21465;52.278;20.962;2023-06-26T07:43:43;1.92;;;1.83;;
35366;SDS011;21465;52.278;20.962;2023-06-26T07:46:09;3.08;;;2.03;;
35366;SDS011;21465;52.278;20.962;2023-06-26T07:48:34;2.00;;;1.70;;
35366;SDS011;21465;52.278;20.962;2023-06-26T07:51:00;2.10;;;1.55;;
35366;SDS011;21465;52.278;20.962;2023-06-26T07:53:26;1.83;;;1.73;;
35366;SDS011;21465;52.278;20.962;2023-06-26T07:55:51;1.77;;;1.67;;
35366;SDS011;21465;52.278;20.962;2023-06-26T07:58:17;3.53;;;2.00;;
35366;SDS011;21465;52.278;20.962;2023-06-26T08:00:44;2.20;;;2.00;;
35366;SDS011;21465;52.278;20.962;2023-06-26T08:03:09;1.80;;;1.70;;
35366;SDS011;21465;52.278;20.962;2023-06-26T08:05:35;1.85;;;1.73;;
35366;SDS011;21465;52.278;20.962;2023-06-26T08:08:01;1.90;;;1.80;;
35366;SDS011;21465;52.278;20.962;2023-06-26T08:10:28;1.98;;;1.88;;
35366;SDS011;21465;52.278;20.962;2023-06-26T08:12:54;1.92;;;1.83;;
35366;SDS011;21465;52.278;20.962;2023-06-26T08:15:20;1.80;;;1.70;;
35366;SDS011;21465;52.278;20.962;2023-06-26T08:17:46;1.90;;;1.70;;
35366;SDS011;21465;52.278;20.962;2023-06-26T08:20:12;2.20;;;2.08;;
35366;SDS011;21465;52.278;20.962;2023-06-26T08:22:39;2.08;;;1.98;;
35366;SDS011;21465;52.278;20.962;2023-06-26T08:25:05;1.77;;;1.67;;
35366;SDS011;21465;52.278;20.962;2023-06-26T08:27:31;2.80;;;1.92;;
35366;SDS011;21465;52.278;20.962;2023-06-26T08:29:58;1.90;;;1.77;;
35366;SDS011;21465;52.278;20.962;2023-06-26T08:32:23;1.90;;;1.80;;
35366;SDS011;21465;52.278;20.962;2023-06-26T08:34:50;2.30;;;1.63;;
35366;SDS011;21465;52.278;20.962;2023-06-26T08:37:16;1.90;;;1.80;;
35366;SDS011;21465;52.278;20.962;2023-06-26T08:39:42;2.38;;;2.17;;
35366;SDS011;21465;52.278;20.962;2023-06-26T08:42:07;3.15;;;2.00;;
35366;SDS011;21465;52.278;20.962;2023-06-26T08:44:33;1.75;;;1.65;;
35366;SDS011;21465;52.278;20.962;2023-06-26T08:47:00;1.50;;;1.40;;
35366;SDS011;21465;52.278;20.962;2023-06-26T08:52:14;1.50;;;1.40;;
35366;SDS011;21465;52.278;20.962;2023-06-26T08:54:45;1.60;;;1.50;;
35366;SDS011;21465;52.278;20.962;2023-06-26T08:57:11;1.70;;;1.60;;
35366;SDS011;21465;52.278;20.962;2023-06-26T08:59:38;1.70;;;1.60;;
35366;SDS011;21465;52.278;20.962;2023-06-26T09:02:04;1.60;;;1.50;;
35366;SDS011;21465;52.278;20.962;2023-06-26T09:04:30;6.75;;;1.70;;
35366;SDS011;21465;52.278;20.962;2023-06-26T09:06:55;2.15;;;1.73;;
35366;SDS011;21465;52.278;20.962;2023-06-26T09:09:21;1.90;;;1.55;;
35366;SDS011;21465;52.278;20.962;2023-06-26T09:11:47;2.25;;;1.60;;
35366;SDS011;21465;52.278;20.962;2023-06-26T09:14:13;1.60;;;1.50;;
35366;SDS011;21465;52.278;20.962;2023-06-26T09:16:39;1.35;;;1.35;;
35366;SDS011;21465;52.278;20.962;2023-06-26T09:19:10;2.57;;;1.70;;
35366;SDS011;21465;52.278;20.962;2023-06-26T09:21:40;3.22;;;1.88;;
35366;SDS011;21465;52.278;20.962;2023-06-26T09:24:07;3.15;;;1.58;;
35366;SDS011;21465;52.278;20.962;2023-06-26T09:26:37;2.58;;;1.35;;
35366;SDS011;21465;52.278;20.962;2023-06-26T09:29:07;2.50;;;1.50;;
35366;SDS011;21465;52.278;20.962;2023-06-26T09:31:35;1.52;;;1.42;;
35366;SDS011;21465;52.278;20.962;2023-06-26T09:34:02;1.52;;;1.30;;
35366;SDS011;21465;52.278;20.962;2023-06-26T09:36:29;1.67;;;1.55;;
35366;SDS011;21465;52.278;20.962;2023-06-26T09:39:00;1.60;;;1.50;;
35366;SDS011;21465;52.278;20.962;2023-06-26T09:41:26;1.70;;;1.60;;
35366;SDS011;21465;52.278;20.962;2023-06-26T09:43:52;1.60;;;1.50;;
35366;SDS011;21465;52.278;20.962;2023-06-26T09:49:06;1.85;;;1.75;;
35366;SDS011;21465;52.278;20.962;2023-06-26T09:51:37;1.90;;;1.80;;
35366;SDS011;21465;52.278;20.962;2023-06-26T09:54:05;1.60;;;1.50;;
35366;SDS011;21465;52.278;20.962;2023-06-26T09:56:31;1.77;;;1.50;;
35366;SDS011;21465;52.278;20.962;2023-06-26T09:59:00;1.80;;;1.70;;
35366;SDS011;21465;52.278;20.962;2023-06-26T10:01:26;5.72;;;2.40;;
35366;SDS011;21465;52.278;20.962;2023-06-26T10:03:53;1.88;;;1.77;;
35366;SDS011;21465;52.278;20.962;2023-06-26T10:06:24;2.35;;;1.92;;
35366;SDS011;21465;52.278;20.962;2023-06-26T10:08:54;2.15;;;1.73;;
35366;SDS011;21465;52.278;20.962;2023-06-26T10:11:21;2.38;;;1.52;;
35366;SDS011;21465;52.278;20.962;2023-06-26T10:13:49;1.35;;;1.25;;
35366;SDS011;21465;52.278;20.962;2023-06-26T10:16:22;1.50;;;1.40;;
35366;SDS011;21465;52.278;20.962;2023-06-26T10:18:50;1.48;;;1.38;;
35366;SDS011;21465;52.278;20.962;2023-06-26T10:21:18;2.42;;;1.58;;
35366;SDS011;21465;52.278;20.962;2023-06-26T10:23:47;1.40;;;1.30;;
35366;SDS011;21465;52.278;20.962;2023-06-26T10:26:12;1.52;;;1.42;;
35366;SDS011;21465;52.278;20.962;2023-06-26T10:28:39;1.63;;;1.20;;
35366;SDS011;21465;52.278;20.962;2023-06-26T10:31:06;3.05;;;1.98;;
35366;SDS011;21465;52.278;20.962;2023-06-26T10:33:33;2.10;;;1.30;;
35366;SDS011;21465;52.278;20.962;2023-06-26T10:36:12;3.70;;;1.38;;
35366;SDS011;21465;52.278;20.962;2023-06-26T10:38:55;1.02;;;1.02;;
35366;SDS011;21465;52.278;20.962;2023-06-26T10:41:22;1.58;;;1.48;;
35366;SDS011;21465;52.278;20.962;2023-06-26T10:46:24;1.60;;;1.50;;
35366;SDS011;21465;52.278;20.962;2023-06-26T10:48:59;3.75;;;1.50;;
35366;SDS011;21465;52.278;20.962;2023-06-26T10:51:26;1.92;;;1.50;;
35366;SDS011;21465;52.278;20.962;2023-06-26T10:53:57;2.53;;;1.80;;
35366;SDS011;21465;52.278;20.962;2023-06-26T10:56:40;2.00;;;1.75;;
35366;SDS011;21465;52.278;20.962;2023-06-26T10:59:14;2.53;;;1.52;;
35366;SDS011;21465;52.278;20.962;2023-06-26T11:01:41;3.22;;;1.73;;
35366;SDS011;21465;52.278;20.962;2023-06-26T11:04:08;1.85;;;1.50;;
35366;SDS011;21465;52.278;20.962;2023-06-26T11:06:34;1.40;;;1.40;;
35366;SDS011;21465;52.278;20.962;2023-06-26T11:09:06;2.13;;;1.40;;
35366;SDS011;21465;52.278;20.962;2023-06-26T11:14:19;1.60;;;1.50;;
35366;SDS011;21465;52.278;20.962;2023-06-26T11:16:45;1.60;;;1.50;;
35366;SDS011;21465;52.278;20.962;2023-06-26T11:19:11;1.83;;;1.65;;
35366;SDS011;21465;52.278;20.962;2023-06-26T11:21:37;2.67;;;2.25;;
35366;SDS011;21465;52.278;20.962;2023-06-26T11:24:07;1.75;;;1.55;;
35366;SDS011;21465;52.278;20.962;2023-06-26T11:26:39;1.77;;;1.67;;
35366;SDS011;21465;52.278;20.962;2023-06-26T11:29:06;1.40;;;1.30;;
35366;SDS011;21465;52.278;20.962;2023-06-26T11:31:34;2.95;;;1.48;;
35366;SDS011;21465;52.278;20.962;2023-06-26T11:34:02;1.50;;;1.40;;
35366;SDS011;21465;52.278;20.962;2023-06-26T11:36:29;1.70;;;1.50;;
35366;SDS011;21465;52.278;20.962;2023-06-26T11:38:59;2.13;;;1.50;;
35366;SDS011;21465;52.278;20.962;2023-06-26T11:41:26;1.85;;;1.33;;
35366;SDS011;21465;52.278;20.962;2023-06-26T11:43:54;1.70;;;1.60;;
35366;SDS011;21465;52.278;20.962;2023-06-26T11:46:20;1.50;;;1.40;;
35366;SDS011;21465;52.278;20.962;2023-06-26T11:48:48;2.70;;;1.33;;
35366;SDS011;21465;52.278;20.962;2023-06-26T11:51:14;1.40;;;1.30;;
35366;SDS011;21465;52.278;20.962;2023-06-26T11:53:41;1.38;;;1.20;;
35366;SDS011;21465;52.278;20.962;2023-06-26T11:56:09;1.63;;;1.52;;
35366;SDS011;21465;52.278;20.962;2023-06-26T11:58:36;1.63;;;1.52;;
35366;SDS011;21465;52.278;20.962;2023-06-26T12:01:02;1.98;;;1.50;;
35366;SDS011;21465;52.278;20.962;2023-06-26T12:03:28;3.13;;;1.50;;
35366;SDS011;21465;52.278;20.962;2023-06-26T12:05:56;1.60;;;1.30;;
35366;SDS011;21465;52.278;20.962;2023-06-26T12:08:22;1.60;;;1.50;;
35366;SDS011;21465;52.278;20.962;2023-06-26T12:10:48;1.60;;;1.50;;
35366;SDS011;21465;52.278;20.962;2023-06-26T12:13:13;1.63;;;1.50;;
35366;SDS011;21465;52.278;20.962;2023-06-26T12:15:39;1.67;;;1.42;;
35366;SDS011;21465;52.278;20.962;2023-06-26T12:18:08;2.17;;;1.60;;
35366;SDS011;21465;52.278;20.962;2023-06-26T12:20:39;2.25;;;1.40;;
35366;SDS011;21465;52.278;20.962;2023-06-26T12:23:12;3.00;;;1.33;;
35366;SDS011;21465;52.278;20.962;2023-06-26T12:25:38;1.95;;;1.52;;
35366;SDS011;21465;52.278;20.962;2023-06-26T12:28:14;1.30;;;1.20;;
35366;SDS011;21465;52.278;20.962;2023-06-26T12:30:41;1.58;;;1.38;;
35366;SDS011;21465;52.278;20.962;2023-06-26T12:33:14;2.28;;;1.70;;
35366;SDS011;21465;52.278;20.962;2023-06-26T12:35:41;2.60;;;1.40;;
35366;SDS011;21465;52.278;20.962;2023-06-26T12:38:08;1.52;;;1.42;;
35366;SDS011;21465;52.278;20.962;2023-06-26T12:40:46;3.25;;;1.70;;
35366;SDS011;21465;52.278;20.962;2023-06-26T12:43:22;2.85;;;1.60;;
35366;SDS011;21465;52.278;20.962;2023-06-26T12:45:52;2.15;;;1.50;;
35366;SDS011;21465;52.278;20.962;2023-06-26T12:48:19;1.88;;;1.77;;
35366;SDS011;21465;52.278;20.962;2023-06-26T12:50:45;1.70;;;1.60;;
35366;SDS011;21465;52.278;20.962;2023-06-26T12:53:11;1.40;;;1.30;;
35366;SDS011;21465;52.278;20.962;2023-06-26T12:55:37;2.38;;;1.45;;
35366;SDS011;21465;52.278;20.962;2023-06-26T12:58:03;1.40;;;1.27;;
35366;SDS011;21465;52.278;20.962;2023-06-26T13:00:28;1.85;;;1.75;;
35366;SDS011;21465;52.278;20.962;2023-06-26T13:02:54;1.67;;;1.58;;
35366;SDS011;21465;52.278;20.962;2023-06-26T13:05:20;2.00;;;1.50;;
35366;SDS011;21465;52.278;20.962;2023-06-26T13:07:46;1.50;;;1.35;;
35366;SDS011;21465;52.278;20.962;2023-06-26T13:10:11;1.60;;;1.50;;
35366;SDS011;21465;52.278;20.962;2023-06-26T13:12:37;3.75;;;1.50;;
35366;SDS011;21465;52.278;20.962;2023-06-26T13:15:03;4.18;;;1.80;;
35366;SDS011;21465;52.278;20.962;2023-06-26T13:17:30;2.28;;;1.88;;
35366;SDS011;21465;52.278;20.962;2023-06-26T13:19:56;2.40;;;1.70;;
35366;SDS011;21465;52.278;20.962;2023-06-26T13:22:22;2.60;;;1.58;;
35366;SDS011;21465;52.278;20.962;2023-06-26T13:24:48;2.55;;;1.50;;
35366;SDS011;21465;52.278;20.962;2023-06-26T13:27:14;1.63;;;1.52;;
35366;SDS011;21465;52.278;20.962;2023-06-26T13:29:41;2.78;;;1.65;;
35366;SDS011;21465;52.278;20.962;2023-06-26T13:32:07;2.45;;;1.48;;
35366;SDS011;21465;52.278;20.962;2023-06-26T13:34:33;1.58;;;1.48;;
35366;SDS011;21465;52.278;20.962;2023-06-26T13:36:59;2.35;;;1.50;;
35366;SDS011;21465;52.278;20.962;2023-06-26T13:39:25;1.50;;;1.40;;
35366;SDS011;21465;52.278;20.962;2023-06-26T13:41:51;1.95;;;1.80;;
35366;SDS011;21465;52.278;20.962;2023-06-26T13:44:17;4.53;;;1.88;;
35366;SDS011;21465;52.278;20.962;2023-06-26T13:46:42;3.42;;;1.60;;
35366;SDS011;21465;52.278;20.962;2023-06-26T13:49:08;1.48;;;1.38;;
35366;SDS011;21465;52.278;20.962;2023-06-26T13:51:34;1.60;;;1.50;;
35366;SDS011;21465;52.278;20.962;2023-06-26T13:54:00;2.38;;;1.83;;
35366;SDS011;21465;52.278;20.962;2023-06-26T13:56:26;1.42;;;1.33;;
35366;SDS011;21465;52.278;20.962;2023-06-26T13:58:53;2.60;;;1.25;;
35366;SDS011;21465;52.278;20.962;2023-06-26T14:01:19;1.80;;;1.30;;
35366;SDS011;21465;52.278;20.962;2023-06-26T14:03:45;1.80;;;1.70;;
35366;SDS011;21465;52.278;20.962;2023-06-26T14:06:11;2.25;;;1.40;;
35366;SDS011;21465;52.278;20.962;2023-06-26T14:08:36;1.63;;;1.40;;
35366;SDS011;21465;52.278;20.962;2023-06-26T14:11:02;2.08;;;1.40;;
35366;SDS011;21465;52.278;20.962;2023-06-26T14:13:28;1.92;;;1.58;;
35366;SDS011;21465;52.278;20.962;2023-06-26T14:15:54;1.45;;;1.35;;
35366;SDS011;21465;52.278;20.962;2023-06-26T14:18:21;1.58;;;1.48;;
35366;SDS011;21465;52.278;20.962;2023-06-26T14:20:49;1.85;;;1.67;;
35366;SDS011;21465;52.278;20.962;2023-06-26T14:23:15;2.03;;;1.70;;
35366;SDS011;21465;52.278;20.962;2023-06-26T14:25:41;1.52;;;1.40;;
35366;SDS011;21465;52.278;20.962;2023-06-26T14:28:06;1.63;;;1.52;;
35366;SDS011;21465;52.278;20.962;2023-06-26T14:30:32;1.65;;;1.48;;
35366;SDS011;21465;52.278;20.962;2023-06-26T14:32:59;1.60;;;1.50;;
35366;SDS011;21465;52.278;20.962;2023-06-26T14:35:25;2.75;;;2.00;;
35366;SDS011;21465;52.278;20.962;2023-06-26T14:37:50;2.60;;;1.50;;
35366;SDS011;21465;52.278;20.962;2023-06-26T14:40:16;1.63;;;1.40;;
35366;SDS011;21465;52.278;20.962;2023-06-26T14:42:42;1.70;;;1.60;;
35366;SDS011;21465;52.278;20.962;2023-06-26T14:45:09;3.55;;;1.20;;
35366;SDS011;21465;52.278;20.962;2023-06-26T14:47:35;1.40;;;1.30;;
35366;SDS011;21465;52.278;20.962;2023-06-26T14:50:01;1.58;;;1.48;;
35366;SDS011;21465;52.278;20.962;2023-06-26T14:52:27;1.60;;;1.50;;